San Luis Valley Regional Bergman Field Alamosa US
ICAO: KALS
IATA: ALS
Category: Medium
Scheduled Services: No

Elevation: 7539 ft
TransAlt. 18000 ft.

Airport Communications:
ASOS:135.175
DENVER CNTR:128.375
DENVER RDO:122.15
CTAF/UNICOM:122.8

KALS Zoom In..

If you have problems with the map follow the link
https://www.worldairports.se/pages/airport.php?
ICAO=KALS

Runways:

(A) RW 02 length 8519 ft width 100 ft
ILS 111.90 / hdg 23

(B) RW 20 length 8519 ft width 100 ft
---- / hdg 203

Location; KALS
Day. 16 / Time. 11.52 Zulu
* Altimeter: 30.21
* Temperature: -11° c. -12.2°f.
* Wind from: 250° Speed 04 kn.
Dewpoint: -12° c.
Visibility: 10 Statute Miles.
Clouds: Clear (automated report).

KALS 161152Z AUTO 25004KT 10SM CLR M11/M12 A3021 RMK AO2 SLP249 T11061122 11089 21122 58008


Wind From 250°
Speed 04 kn.

 
 
jpsmedia.com for Web Design worldairports.se 2018   terms of use